Time;durP1;ratioP1;P1;durP2;ratioP2;P2;SDS_P1;SDS_P2;PMS_P1;PMS_P2;Temp;Humidity;BMP_temperature;BMP_pressure;BME280_temperature;BME280_humidity;BME280_pressure;Samples;Min_cycle;Max_cycle;Signal;HPM_P1;HPM_P2
2022/12/11 00:00:03;;;;;;;;;;;;;;;2.72;100.00;101144.16;5094394;28;19938;-76
2022/12/11 00:02:28;;;;;;;;;;;;;;;2.72;100.00;101143.28;5094689;28;19970;-76
2022/12/11 00:04:53;;;;;;;;;;;;;;;2.73;100.00;101139.81;5094009;28;20150;-76
2022/12/11 00:07:19;;;;;;;;;;;;;;;2.73;100.00;101127.78;5094161;28;19928;-76
2022/12/11 00:09:44;;;;;;;;;;;;;;;2.73;100.00;101140.72;5093733;28;20142;-76
2022/12/11 00:12:09;;;;;;;;;;;;;;;2.73;100.00;101132.94;5094003;28;20177;-76
2022/12/11 00:14:34;;;;;;;;;;;;;;;2.73;100.00;101130.38;5093932;28;19919;-76
2022/12/11 00:17:00;;;;;;;;;;;;;;;2.74;100.00;101131.22;5095628;28;19993;-76
2022/12/11 00:19:25;;;;;;;;;;;;;;;2.73;100.00;101127.78;5095493;28;19916;-76
2022/12/11 00:21:50;;;;;;;;;;;;;;;2.75;100.00;101138.09;5089536;28;19931;-76
2022/12/11 00:24:16;;;;;;;;;;;;;;;2.74;100.00;101126.03;5085270;28;20001;-76
2022/12/11 00:26:41;;;;;;;;;;;;;;;2.74;100.00;101139.81;5074503;28;19920;-76
2022/12/11 00:29:07;;;;;;;;;;;;;;;2.74;100.00;101146.72;5087497;28;19924;-76
2022/12/11 00:31:33;;;;;;;;;;;;;;;2.75;100.00;101148.44;5082272;28;19924;-75
2022/12/11 00:34:00;;;;;;;;;;;;;;;2.74;100.00;101141.56;5086699;28;19920;-76
2022/12/11 00:36:25;;;;;;;;;;;;;;;2.74;100.00;101139.81;5087026;28;19916;-76
2022/12/11 00:38:51;;;;;;;;;;;;;;;2.74;100.00;101145.00;5084479;28;19962;-76
2022/12/11 00:41:17;;;;;;;;;;;;;;;2.74;100.00;101134.66;5086564;28;20188;-76
2022/12/11 00:43:42;;;;;;;;;;;;;;;2.74;100.00;101137.25;5086907;28;19982;-76
2022/12/11 00:46:08;;;;;;;;;;;;;;;2.74;100.00;101128.63;5085708;28;20253;-76
2022/12/11 00:48:33;;;;;;;;;;;;;;;2.74;100.00;101132.06;5085679;28;20075;-76
2022/12/11 00:50:59;;;;;;;;;;;;;;;2.75;100.00;101141.56;5086318;28;19924;-76
2022/12/11 00:53:24;;;;;;;;;;;;;;;2.74;100.00;101139.81;5085415;28;19935;-76
2022/12/11 00:55:49;;;;;;;;;;;;;;;2.75;100.00;101133.81;5086185;28;20115;-76
2022/12/11 00:58:14;;;;;;;;;;;;;;;2.74;100.00;101137.25;5083319;28;19924;-76
2022/12/11 01:00:40;;;;;;;;;;;;;;;2.75;100.00;101141.56;5071867;28;19919;-76
2022/12/11 01:03:06;;;;;;;;;;;;;;;2.75;100.00;101136.38;5075959;28;20216;-76
2022/12/11 01:05:31;;;;;;;;;;;;;;;2.75;100.00;101132.91;5073317;28;19931;-76
2022/12/11 01:07:57;;;;;;;;;;;;;;;2.75;100.00;101141.56;5066828;28;20263;-76
2022/12/11 01:10:22;;;;;;;;;;;;;;;2.75;100.00;101128.63;5074194;28;20208;-76
2022/12/11 01:12:48;;;;;;;;;;;;;;;2.75;100.00;101133.81;5074668;28;19935;-76
2022/12/11 01:15:13;;;;;;;;;;;;;;;2.75;100.00;101131.22;5067634;28;19954;-76
2022/12/11 01:17:38;;;;;;;;;;;;;;;2.75;100.00;101138.97;5057293;28;19975;-76
2022/12/11 01:20:04;;;;;;;;;;;;;;;2.76;100.00;101143.25;5072927;28;19913;-76
2022/12/11 01:22:29;;;;;;;;;;;;;;;2.76;100.00;101147.59;5100209;28;19943;-76
2022/12/11 01:24:55;;;;;;;;;;;;;;;2.76;100.00;101151.03;5100512;28;20097;-76
2022/12/11 01:27:20;;;;;;;;;;;;;;;2.75;100.00;101148.44;5100229;28;19924;-76
2022/12/11 01:29:45;;;;;;;;;;;;;;;2.76;100.00;101148.44;5100014;28;19920;-76
2022/12/11 01:32:10;;;;;;;;;;;;;;;2.76;100.00;101142.41;5100150;28;19928;-76
2022/12/11 01:34:36;;;;;;;;;;;;;;;2.76;100.00;101142.41;5099931;28;19943;-76
2022/12/11 01:37:01;;;;;;;;;;;;;;;2.76;100.00;101142.41;5100214;28;20292;-76
2022/12/11 01:39:27;;;;;;;;;;;;;;;2.76;100.00;101145.00;5100277;28;19920;-76
2022/12/11 01:41:57;;;;;;;;;;;;;;;2.76;100.00;101147.59;5081617;28;19927;-76
2022/12/11 01:44:22;;;;;;;;;;;;;;;2.75;100.00;101144.16;5100113;28;19915;-76
2022/12/11 01:46:47;;;;;;;;;;;;;;;2.76;100.00;101137.25;5099624;28;19919;-76
2022/12/11 01:49:13;;;;;;;;;;;;;;;2.76;100.00;101145.00;5100121;28;19982;-76
2022/12/11 01:51:50;;;;;;;;;;;;;;;2.75;100.00;101130.31;5099451;28;20199;-75
2022/12/11 01:54:16;;;;;;;;;;;;;;;2.75;100.00;101127.75;5100141;28;19915;-76
2022/12/11 01:56:43;;;;;;;;;;;;;;;2.75;100.00;101138.97;5099531;28;19920;-76
2022/12/11 01:59:10;;;;;;;;;;;;;;;2.74;100.00;101129.47;5100051;28;20239;-76
2022/12/11 02:04:46;;;;;;;;;;;;;;;2.75;100.00;101125.16;5098297;28;20130;-76
2022/12/11 02:07:11;;;;;;;;;;;;;;;2.74;100.00;101129.47;5100772;28;20108;-76
2022/12/11 02:09:39;;;;;;;;;;;;;;;2.75;100.00;101127.75;5099198;28;19923;-76
2022/12/11 02:12:19;;;;;;;;;;;;;;;2.75;100.00;101127.75;5081411;28;19916;-76
2022/12/11 02:14:55;;;;;;;;;;;;;;;2.75;100.00;101135.50;5096561;28;19958;-76
2022/12/11 02:17:39;;;;;;;;;;;;;;;2.74;100.00;101134.66;5098982;28;19915;-76
2022/12/11 02:20:04;;;;;;;;;;;;;;;2.74;100.00;101137.25;5099261;28;20123;-76
2022/12/11 02:22:46;;;;;;;;;;;;;;;2.74;100.00;101145.00;5098931;28;19924;-76
2022/12/11 02:25:20;;;;;;;;;;;;;;;2.74;100.00;101134.66;5099455;28;19912;-76
2022/12/11 02:27:49;;;;;;;;;;;;;;;2.74;100.00;101137.25;5096596;28;19912;-76
2022/12/11 02:30:15;;;;;;;;;;;;;;;2.74;100.00;101138.97;5095671;28;20297;-76
2022/12/11 02:32:44;;;;;;;;;;;;;;;2.73;100.00;101140.72;5087825;28;19943;-76
2022/12/11 02:35:12;;;;;;;;;;;;;;;2.73;100.00;101137.25;5098978;28;20238;-76
2022/12/11 02:37:39;;;;;;;;;;;;;;;2.73;100.00;101139.81;5085548;28;19995;-76
2022/12/11 02:40:07;;;;;;;;;;;;;;;2.73;100.00;101129.47;5098971;28;19951;-76
2022/12/11 02:42:32;;;;;;;;;;;;;;;2.72;100.00;101128.63;5098689;28;20119;-76
2022/12/11 02:44:59;;;;;;;;;;;;;;;2.72;100.00;101122.59;5099150;28;19920;-76
2022/12/11 02:47:25;;;;;;;;;;;;;;;2.72;100.00;101123.47;5098879;28;19930;-76
2022/12/11 02:49:52;;;;;;;;;;;;;;;2.73;100.00;101132.06;5098487;28;19916;-76
2022/12/11 02:52:19;;;;;;;;;;;;;;;2.72;100.00;101117.44;5098823;28;19916;-76
2022/12/11 02:54:46;;;;;;;;;;;;;;;2.72;100.00;101118.28;5098379;28;19951;-76
2022/12/11 02:57:15;;;;;;;;;;;;;;;2.71;100.00;101111.41;5098641;28;19920;-73
2022/12/11 02:59:42;;;;;;;;;;;;;;;2.71;100.00;101105.34;5098276;28;20216;-76
2022/12/11 03:02:09;;;;;;;;;;;;;;;2.72;100.00;101101.91;5096836;28;19922;-76
2022/12/11 03:04:35;;;;;;;;;;;;;;;2.72;100.00;101099.31;5097971;28;20011;-76
2022/12/11 03:07:10;;;;;;;;;;;;;;;2.72;100.00;101101.91;5098318;28;19916;-76
2022/12/11 03:09:39;;;;;;;;;;;;;;;2.71;100.00;101097.59;5098202;28;19921;-76
2022/12/11 03:12:05;;;;;;;;;;;;;;;2.72;100.00;101102.75;5098256;28;19916;-76
2022/12/11 03:14:31;;;;;;;;;;;;;;;2.72;100.00;101089.84;5098266;28;20212;-76
2022/12/11 03:17:04;;;;;;;;;;;;;;;2.72;100.00;101088.97;5098190;28;19908;-76
2022/12/11 03:19:29;;;;;;;;;;;;;;;2.72;100.00;101087.25;5098053;28;20194;-75
2022/12/11 03:22:00;;;;;;;;;;;;;;;2.71;100.00;101085.53;5098155;28;19962;-76
2022/12/11 03:24:31;;;;;;;;;;;;;;;2.71;100.00;101088.13;5098060;28;19923;-76
2022/12/11 03:27:00;;;;;;;;;;;;;;;2.71;100.00;101082.97;5098124;28;19995;-76
2022/12/11 03:29:30;;;;;;;;;;;;;;;2.71;100.00;101093.31;5098077;28;19923;-74
2022/12/11 03:32:11;;;;;;;;;;;;;;;2.71;100.00;101084.66;5083629;28;19923;-76
2022/12/11 03:34:36;;;;;;;;;;;;;;;2.71;100.00;101085.53;5077586;28;19958;-76
2022/12/11 03:37:02;;;;;;;;;;;;;;;2.71;100.00;101085.53;5078070;28;19908;-76
2022/12/11 03:39:32;;;;;;;;;;;;;;;2.70;100.00;101083.81;5060124;28;19917;-76
2022/12/11 03:41:59;;;;;;;;;;;;;;;2.71;100.00;101089.84;5057384;28;19925;-76
2022/12/11 03:44:26;;;;;;;;;;;;;;;2.70;100.00;101083.81;5065329;28;19921;-76
2022/12/11 03:46:52;;;;;;;;;;;;;;;2.71;100.00;101084.66;5057507;28;20274;-76
2022/12/11 03:49:24;;;;;;;;;;;;;;;2.70;100.00;101083.81;5069268;28;19913;-76
2022/12/11 03:51:51;;;;;;;;;;;;;;;2.70;100.00;101073.47;5064155;28;19920;-76
2022/12/11 03:54:16;;;;;;;;;;;;;;;2.70;100.00;101081.22;5077582;28;20112;-76
2022/12/11 03:56:44;;;;;;;;;;;;;;;2.70;100.00;101081.22;5068661;28;19987;-76
2022/12/11 03:59:09;;;;;;;;;;;;;;;2.69;100.00;101070.03;5057191;28;19908;-76
2022/12/11 04:01:34;;;;;;;;;;;;;;;2.68;100.00;101078.63;5057088;28;19921;-76
2022/12/11 04:03:59;;;;;;;;;;;;;;;2.69;100.00;101071.72;5057490;28;20120;-76
2022/12/11 04:06:25;;;;;;;;;;;;;;;2.69;100.00;101064.84;5067791;28;19925;-76
2022/12/11 04:08:50;;;;;;;;;;;;;;;2.70;100.00;101070.88;5068779;28;19940;-76
2022/12/11 04:11:33;;;;;;;;;;;;;;;2.70;100.00;101068.28;5057392;28;20006;-76
2022/12/11 04:16:43;;;;;;;;;;;;;;;2.69;100.00;101069.16;5057058;28;20151;-76
2022/12/11 04:24:36;;;;;;;;;;;;;;;2.69;100.00;101061.38;5077002;28;20139;-76
2022/12/11 04:27:02;;;;;;;;;;;;;;;2.68;100.00;101063.13;5077213;28;19916;-76
2022/12/11 04:29:27;;;;;;;;;;;;;;;2.68;100.00;101068.28;5077612;28;19943;-76
2022/12/11 04:31:52;;;;;;;;;;;;;;;2.68;100.00;101065.72;5076736;28;19920;-76
2022/12/11 04:34:17;;;;;;;;;;;;;;;2.67;100.00;101058.84;5077386;28;19974;-76
2022/12/11 04:36:43;;;;;;;;;;;;;;;2.68;100.00;101068.28;5076786;28;19920;-76
2022/12/11 04:39:08;;;;;;;;;;;;;;;2.68;100.00;101067.44;5076893;28;19990;-75
2022/12/11 04:41:34;;;;;;;;;;;;;;;2.67;100.00;101061.41;5076632;28;19920;-76
2022/12/11 04:43:59;;;;;;;;;;;;;;;2.68;100.00;101063.13;5077624;28;20111;-76
2022/12/11 04:46:24;;;;;;;;;;;;;;;2.68;100.00;101063.13;5093730;28;20143;-76
2022/12/11 04:48:50;;;;;;;;;;;;;;;2.67;100.00;101061.41;5096977;28;19912;-76
2022/12/11 04:51:16;;;;;;;;;;;;;;;2.67;100.00;101056.25;5091927;28;19930;-76
2022/12/11 04:53:41;;;;;;;;;;;;;;;2.68;100.00;101059.69;5099114;28;19908;-76
2022/12/11 04:56:07;;;;;;;;;;;;;;;2.66;100.00;101059.69;5101215;28;19920;-76
2022/12/11 04:58:32;;;;;;;;;;;;;;;2.67;100.00;101063.13;5100925;28;19983;-76
2022/12/11 05:00:58;;;;;;;;;;;;;;;2.67;100.00;101060.53;5101059;28;20135;-76
2022/12/11 05:03:23;;;;;;;;;;;;;;;2.66;100.00;101062.28;5100873;28;19920;-76
2022/12/11 05:05:52;;;;;;;;;;;;;;;2.65;100.00;101054.53;5100646;28;19927;-76
2022/12/11 05:08:18;;;;;;;;;;;;;;;2.65;100.00;101057.09;5100561;28;19966;-76
2022/12/11 05:10:43;;;;;;;;;;;;;;;2.65;100.00;101059.69;5100530;28;19924;-75
2022/12/11 05:13:08;;;;;;;;;;;;;;;2.65;100.00;101055.38;5100581;28;20116;-76
2022/12/11 05:15:33;;;;;;;;;;;;;;;2.64;100.00;101058.00;5100365;28;19920;-76
2022/12/11 05:17:59;;;;;;;;;;;;;;;2.65;100.00;101054.53;5100989;28;19936;-76
2022/12/11 05:20:24;;;;;;;;;;;;;;;2.64;100.00;101051.09;5100497;28;19926;-76
2022/12/11 05:22:49;;;;;;;;;;;;;;;2.64;100.00;101045.91;5100370;28;20182;-76
2022/12/11 05:25:14;;;;;;;;;;;;;;;2.64;100.00;101029.53;5100572;28;20109;-76
2022/12/11 05:27:40;;;;;;;;;;;;;;;2.65;100.00;101033.84;5100112;28;20127;-76
2022/12/11 05:30:05;;;;;;;;;;;;;;;2.65;100.00;101036.41;5100559;28;20258;-76
2022/12/11 05:32:30;;;;;;;;;;;;;;;2.65;100.00;101036.41;5081850;28;20087;-76
2022/12/11 05:34:56;;;;;;;;;;;;;;;2.64;100.00;101027.81;5100672;28;19981;-76
2022/12/11 05:37:21;;;;;;;;;;;;;;;2.64;100.00;101029.53;5100124;28;19912;-76
2022/12/11 05:39:46;;;;;;;;;;;;;;;2.63;100.00;101028.66;5099920;28;19912;-76
2022/12/11 05:42:11;;;;;;;;;;;;;;;2.63;100.00;101020.06;5100108;28;19983;-76
2022/12/11 05:44:37;;;;;;;;;;;;;;;2.64;100.00;101024.38;5100056;28;19965;-76
2022/12/11 05:47:02;;;;;;;;;;;;;;;2.63;100.00;101026.06;5100108;28;19928;-76
2022/12/11 05:49:27;;;;;;;;;;;;;;;2.62;100.00;101023.50;5100284;28;19920;-76
2022/12/11 05:51:53;;;;;;;;;;;;;;;2.63;100.00;101027.81;5096024;28;19920;-76
2022/12/11 05:54:18;;;;;;;;;;;;;;;2.62;100.00;101026.06;5098310;28;19924;-76
2022/12/11 05:56:44;;;;;;;;;;;;;;;2.63;100.00;101032.97;5088388;28;19991;-76
2022/12/11 05:59:09;;;;;;;;;;;;;;;2.63;100.00;101033.84;5099726;28;19950;-76
2022/12/11 06:01:36;;;;;;;;;;;;;;;2.63;100.00;101032.97;5099504;28;20235;-76
2022/12/11 06:04:02;;;;;;;;;;;;;;;2.63;100.00;101031.25;5099674;28;19995;-76
2022/12/11 06:06:28;;;;;;;;;;;;;;;2.63;100.00;101035.56;5099545;28;20265;-76
2022/12/11 06:08:54;;;;;;;;;;;;;;;2.63;100.00;101035.56;5099576;28;19979;-76
2022/12/11 06:11:20;;;;;;;;;;;;;;;2.62;100.00;101046.78;5099591;28;19961;-76
2022/12/11 06:13:45;;;;;;;;;;;;;;;2.63;100.00;101046.75;5099226;28;19912;-76
2022/12/11 06:16:10;;;;;;;;;;;;;;;2.61;100.00;101048.50;5099682;28;19918;-75
2022/12/11 06:18:36;;;;;;;;;;;;;;;2.61;100.00;101048.50;5099203;28;19912;-76
2022/12/11 06:21:09;;;;;;;;;;;;;;;2.61;100.00;101052.81;5099407;28;20151;-76
2022/12/11 06:23:34;;;;;;;;;;;;;;;2.60;100.00;101051.97;5098887;28;20176;-76
2022/12/11 06:26:01;;;;;;;;;;;;;;;2.60;100.00;101051.09;5099162;28;19956;-76
2022/12/11 06:28:27;;;;;;;;;;;;;;;2.60;100.00;101046.81;5099504;28;20500;-76
2022/12/11 06:30:52;;;;;;;;;;;;;;;2.61;100.00;101047.66;5098922;28;19920;-76
2022/12/11 06:33:17;;;;;;;;;;;;;;;2.61;100.00;101052.81;5098935;28;19951;-76
2022/12/11 06:35:42;;;;;;;;;;;;;;;2.60;100.00;101049.38;5099255;28;20185;-76
2022/12/11 06:38:09;;;;;;;;;;;;;;;2.61;100.00;101050.25;5099111;28;19920;-75
2022/12/11 06:40:34;;;;;;;;;;;;;;;2.60;100.00;101054.56;5098650;28;20123;-76
2022/12/11 06:43:00;;;;;;;;;;;;;;;2.60;100.00;101048.50;5099136;28;19912;-76
2022/12/11 06:45:25;;;;;;;;;;;;;;;2.60;100.00;101057.16;5098707;28;19920;-76
2022/12/11 06:47:50;;;;;;;;;;;;;;;2.60;100.00;101051.97;5098554;28;19920;-76
2022/12/11 06:50:15;;;;;;;;;;;;;;;2.59;100.00;101045.06;5098855;28;19916;-76
2022/12/11 06:52:41;;;;;;;;;;;;;;;2.61;100.00;101045.06;5098478;28;20332;-76
2022/12/11 06:55:06;;;;;;;;;;;;;;;2.59;100.00;101045.06;5098969;28;19919;-76
2022/12/11 06:57:32;;;;;;;;;;;;;;;2.60;100.00;101046.81;5086324;28;19995;-76
2022/12/11 06:59:57;;;;;;;;;;;;;;;2.59;100.00;101045.06;5087963;28;19947;-76
2022/12/11 07:02:22;;;;;;;;;;;;;;;2.60;100.00;101033.00;5063431;28;20011;-76
2022/12/11 07:04:48;;;;;;;;;;;;;;;2.60;100.00;101035.56;5091428;28;19931;-76
2022/12/11 07:07:13;;;;;;;;;;;;;;;2.60;100.00;101030.41;5090442;28;20127;-76
2022/12/11 07:09:39;;;;;;;;;;;;;;;2.60;100.00;101033.00;5080029;28;19920;-76
2022/12/11 07:12:05;;;;;;;;;;;;;;;2.60;100.00;101030.41;5098411;28;20204;-76
2022/12/11 07:14:30;;;;;;;;;;;;;;;2.59;100.00;101029.56;5097799;28;19916;-76
2022/12/11 07:16:56;;;;;;;;;;;;;;;2.59;100.00;101037.31;5098444;28;20137;-76
2022/12/11 07:19:21;;;;;;;;;;;;;;;2.60;100.00;101035.56;5097649;28;19912;-76
2022/12/11 07:21:46;;;;;;;;;;;;;;;2.59;100.00;101036.47;5097273;28;19927;-76
2022/12/11 07:24:12;;;;;;;;;;;;;;;2.59;100.00;101042.47;5098250;28;20080;-76
2022/12/11 07:26:37;;;;;;;;;;;;;;;2.59;100.00;101033.88;5097285;28;19920;-76
2022/12/11 07:29:02;;;;;;;;;;;;;;;2.59;100.00;101039.03;5097679;28;20006;-76
2022/12/11 07:31:28;;;;;;;;;;;;;;;2.58;100.00;101043.34;5097594;28;19975;-76
2022/12/11 07:33:54;;;;;;;;;;;;;;;2.58;100.00;101043.34;5097904;28;19912;-76
2022/12/11 07:36:21;;;;;;;;;;;;;;;2.58;100.00;101042.47;5096591;28;19964;-76
2022/12/11 07:38:46;;;;;;;;;;;;;;;2.58;100.00;101047.66;5097006;28;20227;-76
2022/12/11 07:41:12;;;;;;;;;;;;;;;2.58;100.00;101047.66;5091450;28;19923;-76
2022/12/11 07:43:38;;;;;;;;;;;;;;;2.58;100.00;101063.16;5096343;28;19924;-76
2022/12/11 07:46:05;;;;;;;;;;;;;;;2.58;100.00;101060.59;5096377;28;20253;-76
2022/12/11 07:48:30;;;;;;;;;;;;;;;2.59;100.00;101062.31;5095009;28;20004;-76
2022/12/11 07:51:05;;;;;;;;;;;;;;;2.59;100.00;101062.31;5096435;28;19916;-75
2022/12/11 07:53:31;;;;;;;;;;;;;;;2.57;100.00;101067.50;5095981;28;19979;-76
2022/12/11 07:55:57;;;;;;;;;;;;;;;2.59;100.00;101070.06;5097217;28;19912;-76
2022/12/11 07:58:23;;;;;;;;;;;;;;;2.57;100.00;101070.06;5097132;28;19916;-76
2022/12/11 08:00:48;;;;;;;;;;;;;;;2.59;100.00;101064.91;5096956;28;19992;-75
2022/12/11 08:03:13;;;;;;;;;;;;;;;2.58;100.00;101063.16;5096565;28;19912;-74
2022/12/11 08:05:38;;;;;;;;;;;;;;;2.57;100.00;101064.06;5096438;28;19928;-74
2022/12/11 08:08:04;;;;;;;;;;;;;;;2.57;100.00;101062.31;5096493;28;19928;-74
2022/12/11 08:10:29;;;;;;;;;;;;;;;2.57;100.00;101062.31;5077593;28;20261;-74
2022/12/11 08:12:54;;;;;;;;;;;;;;;2.57;100.00;101066.63;5080370;28;20207;-74
2022/12/11 08:15:20;;;;;;;;;;;;;;;2.58;100.00;101070.94;5090831;28;19924;-74
2022/12/11 08:17:45;;;;;;;;;;;;;;;2.57;100.00;101070.06;5081420;28;19925;-74
2022/12/11 08:20:10;;;;;;;;;;;;;;;2.58;100.00;101070.94;5076096;28;19951;-74
2022/12/11 08:22:35;;;;;;;;;;;;;;;2.58;100.00;101068.34;5082298;28;20231;-74
2022/12/11 08:25:00;;;;;;;;;;;;;;;2.58;100.00;101063.16;5087295;28;20223;-74
2022/12/11 08:27:26;;;;;;;;;;;;;;;2.57;100.00;101064.91;5096088;28;20163;-74
2022/12/11 08:29:51;;;;;;;;;;;;;;;2.58;100.00;101069.19;5099676;28;19943;-74
2022/12/11 08:32:17;;;;;;;;;;;;;;;2.58;100.00;101069.19;5100167;28;19927;-74
2022/12/11 08:34:43;;;;;;;;;;;;;;;2.58;100.00;101071.78;5097494;28;20184;-74
2022/12/11 08:37:08;;;;;;;;;;;;;;;2.58;100.00;101070.94;5100872;28;19919;-74
2022/12/11 08:39:33;;;;;;;;;;;;;;;2.58;100.00;101076.09;5099552;28;20215;-74
2022/12/11 08:41:58;;;;;;;;;;;;;;;2.60;100.00;101071.78;5100079;28;19954;-74
2022/12/11 08:44:25;;;;;;;;;;;;;;;2.59;100.00;101067.50;5099662;28;20104;-74
2022/12/11 08:46:50;;;;;;;;;;;;;;;2.58;100.00;101064.03;5092808;28;19931;-74
2022/12/11 08:49:16;;;;;;;;;;;;;;;2.59;100.00;101068.34;5097330;28;19920;-74
2022/12/11 08:51:41;;;;;;;;;;;;;;;2.59;100.00;101068.34;5097052;28;19959;-74
2022/12/11 08:54:08;;;;;;;;;;;;;;;2.60;100.00;101064.03;5097543;28;19916;-74
2022/12/11 08:56:33;;;;;;;;;;;;;;;2.61;100.00;101063.16;5095551;28;19928;-74
2022/12/11 08:58:59;;;;;;;;;;;;;;;2.60;100.00;101067.47;5096244;28;19924;-74
2022/12/11 09:01:26;;;;;;;;;;;;;;;2.61;100.00;101065.75;5096934;28;20208;-74
2022/12/11 09:03:52;;;;;;;;;;;;;;;2.62;100.00;101062.28;5096354;28;20034;-74
2022/12/11 09:06:19;;;;;;;;;;;;;;;2.63;100.00;101066.59;5096524;28;19973;-74
2022/12/11 09:08:45;;;;;;;;;;;;;;;2.62;100.00;101070.03;5097109;28;19908;-74
2022/12/11 09:11:12;;;;;;;;;;;;;;;2.63;100.00;101069.19;5097575;28;19980;-74
2022/12/11 09:13:37;;;;;;;;;;;;;;;2.63;100.00;101067.44;5096982;28;19962;-74
2022/12/11 09:16:04;;;;;;;;;;;;;;;2.64;100.00;101066.59;5098583;28;19919;-74
2022/12/11 09:18:29;;;;;;;;;;;;;;;2.64;100.00;101058.84;5097838;28;20159;-74
2022/12/11 09:21:01;;;;;;;;;;;;;;;2.64;100.00;101056.25;5098214;28;19927;-74
2022/12/11 09:23:27;;;;;;;;;;;;;;;2.64;100.00;101058.84;5096935;28;19927;-74
2022/12/11 09:25:52;;;;;;;;;;;;;;;2.66;100.00;101066.59;5097428;28;20180;-74
2022/12/11 09:28:18;;;;;;;;;;;;;;;2.66;100.00;101062.28;5095318;28;19924;-74
2022/12/11 09:30:43;;;;;;;;;;;;;;;2.66;100.00;101054.50;5091091;28;19924;-74
2022/12/11 09:33:09;;;;;;;;;;;;;;;2.67;100.00;101058.84;5087342;28;20097;-74
2022/12/11 09:35:34;;;;;;;;;;;;;;;2.67;100.00;101053.66;5090866;28;20200;-74
2022/12/11 09:37:59;;;;;;;;;;;;;;;2.66;100.00;101054.50;5076297;28;20150;-74
2022/12/11 09:40:24;;;;;;;;;;;;;;;2.66;100.00;101057.09;5083468;28;19931;-74
2022/12/11 09:42:53;;;;;;;;;;;;;;;2.68;100.00;101051.94;5088182;28;19924;-74
2022/12/11 09:45:19;;;;;;;;;;;;;;;2.69;100.00;101061.38;5093965;28;19954;-74
2022/12/11 09:47:53;;;;;;;;;;;;;;;2.69;100.00;101062.28;5094616;28;19928;-74
2022/12/11 09:50:21;;;;;;;;;;;;;;;2.69;100.00;101064.84;5093678;28;20162;-74
2022/12/11 09:52:46;;;;;;;;;;;;;;;2.71;100.00;101057.09;5085357;28;19924;-74
2022/12/11 09:55:13;;;;;;;;;;;;;;;2.72;100.00;101060.53;5094102;28;19964;-74
2022/12/11 09:57:47;;;;;;;;;;;;;;;2.73;100.00;101057.06;5092826;28;20006;-74
2022/12/11 10:00:18;;;;;;;;;;;;;;;2.73;100.00;101052.78;5093836;28;19916;-74
2022/12/11 10:03:07;;;;;;;;;;;;;;;2.73;100.00;101050.19;5087488;28;20271;-74
2022/12/11 10:05:48;;;;;;;;;;;;;;;2.74;100.00;101053.63;5086411;28;20217;-74
2022/12/11 10:08:33;;;;;;;;;;;;;;;2.75;100.00;101057.91;5089533;28;19924;-74
2022/12/11 10:11:20;;;;;;;;;;;;;;;2.77;100.00;101062.22;5095739;28;19939;-74
2022/12/11 10:13:49;;;;;;;;;;;;;;;2.77;100.00;101061.38;5095242;28;19958;-76
2022/12/11 10:16:20;;;;;;;;;;;;;;;2.76;100.00;101051.88;5096495;28;19957;-75
2022/12/11 10:18:46;;;;;;;;;;;;;;;2.77;100.00;101053.63;5095755;28;20115;-75
2022/12/11 10:21:11;;;;;;;;;;;;;;;2.77;100.00;101046.72;5096212;28;19960;-75
2022/12/11 10:23:40;;;;;;;;;;;;;;;2.78;100.00;101047.56;5095502;28;19915;-75
2022/12/11 10:26:07;;;;;;;;;;;;;;;2.78;100.00;101040.66;5095136;28;19920;-75
2022/12/11 10:28:33;;;;;;;;;;;;;;;2.79;100.00;101044.97;5095129;28;20235;-75
2022/12/11 10:31:10;;;;;;;;;;;;;;;2.80;100.00;101045.81;5092373;28;19947;-75
2022/12/11 10:33:35;;;;;;;;;;;;;;;2.80;100.00;101036.34;5094336;28;19920;-75
2022/12/11 10:36:00;;;;;;;;;;;;;;;2.81;100.00;101032.88;5085664;28;19926;-75
2022/12/11 10:38:27;;;;;;;;;;;;;;;2.82;100.00;101028.56;5094427;28;20208;-75
2022/12/11 10:41:02;;;;;;;;;;;;;;;2.82;100.00;101033.72;5096139;28;19923;-75
2022/12/11 10:43:38;;;;;;;;;;;;;;;2.84;100.00;101019.09;5096225;28;20226;-75
2022/12/11 10:46:04;;;;;;;;;;;;;;;2.85;100.00;101018.22;5096243;28;19916;-75
2022/12/11 10:48:30;;;;;;;;;;;;;;;2.85;100.00;101019.06;5095784;28;19967;-75
2022/12/11 10:50:57;;;;;;;;;;;;;;;2.85;100.00;101013.88;5094898;28;19920;-75
2022/12/11 10:53:24;;;;;;;;;;;;;;;2.88;100.00;101015.63;5093874;28;19923;-75
2022/12/11 10:55:50;;;;;;;;;;;;;;;2.88;100.00;101016.47;5093794;28;19916;-75
2022/12/11 10:58:17;;;;;;;;;;;;;;;2.88;100.00;101016.47;5093412;28;19953;-75
2022/12/11 11:00:43;;;;;;;;;;;;;;;2.90;100.00;101018.19;5093875;28;19954;-75
2022/12/11 11:03:21;;;;;;;;;;;;;;;2.90;100.00;101006.09;5094945;28;19920;-75
2022/12/11 11:05:47;;;;;;;;;;;;;;;2.91;100.00;101012.13;5094027;28;19924;-76
2022/12/11 11:08:15;;;;;;;;;;;;;;;2.92;100.00;101008.69;5094751;28;19920;-74
2022/12/11 11:10:50;;;;;;;;;;;;;;;2.93;100.00;101016.44;5094295;28;19908;-74
2022/12/11 11:13:16;;;;;;;;;;;;;;;2.93;100.00;101011.28;5094667;28;19912;-76
2022/12/11 11:15:41;;;;;;;;;;;;;;;2.94;100.00;101012.97;5094291;28;20116;-74
2022/12/11 11:18:11;;;;;;;;;;;;;;;2.95;100.00;101008.66;5094740;28;19962;-74
2022/12/11 11:20:42;;;;;;;;;;;;;;;2.95;100.00;101009.53;5093806;28;19915;-75
2022/12/11 11:23:11;;;;;;;;;;;;;;;2.96;100.00;101010.38;5095297;28;19994;-74
2022/12/11 11:25:36;;;;;;;;;;;;;;;2.95;100.00;101013.81;5094871;28;19916;-76
2022/12/11 11:28:16;;;;;;;;;;;;;;;2.97;100.00;101019.88;5095836;28;19924;-76
2022/12/11 11:30:53;;;;;;;;;;;;;;;2.96;100.00;101013.81;5095362;28;19986;-76
2022/12/11 11:33:19;;;;;;;;;;;;;;;2.97;100.00;101018.13;5095487;28;20207;-77
2022/12/11 11:35:55;;;;;;;;;;;;;;;2.97;100.00;101015.56;5095543;28;19923;-76
2022/12/11 11:38:23;;;;;;;;;;;;;;;2.98;100.00;101008.63;5075255;28;19920;-76
2022/12/11 11:41:06;;;;;;;;;;;;;;;2.98;100.00;101008.63;5079455;28;19986;-76
2022/12/11 11:43:39;;;;;;;;;;;;;;;2.98;100.00;101008.63;5090989;28;19910;-76
2022/12/11 11:46:04;;;;;;;;;;;;;;;2.98;100.00;101006.06;5095926;28;19916;-77
2022/12/11 11:48:34;;;;;;;;;;;;;;;2.99;100.00;101003.47;5095261;28;19916;-76
2022/12/11 11:51:05;;;;;;;;;;;;;;;2.99;100.00;100998.28;5095620;28;19916;-76
2022/12/11 11:53:36;;;;;;;;;;;;;;;2.99;100.00;100998.28;5094591;28;19923;-76
2022/12/11 11:56:12;;;;;;;;;;;;;;;3.00;100.00;101005.19;5095535;28;19923;-76
2022/12/11 11:58:37;;;;;;;;;;;;;;;3.00;100.00;100993.97;5095056;28;20230;-76
2022/12/11 12:01:02;;;;;;;;;;;;;;;3.01;100.00;100996.53;5095027;28;19917;-76
2022/12/11 12:03:28;;;;;;;;;;;;;;;3.02;100.00;100989.63;5076877;28;19912;-76
2022/12/11 12:06:12;;;;;;;;;;;;;;;3.02;100.00;100999.97;5094856;28;20249;-76
2022/12/11 12:08:59;;;;;;;;;;;;;;;3.03;100.00;100999.13;5094829;28;20113;-76
2022/12/11 12:11:31;;;;;;;;;;;;;;;3.02;100.00;100998.28;5094493;28;19908;-76
2022/12/11 12:13:57;;;;;;;;;;;;;;;3.04;100.00;101000.84;5095232;28;19923;-76
2022/12/11 12:16:32;;;;;;;;;;;;;;;3.03;100.00;100999.13;5094684;28;20115;-76
2022/12/11 12:19:02;;;;;;;;;;;;;;;3.04;100.00;100999.13;5095106;28;19996;-76
2022/12/11 12:21:34;;;;;;;;;;;;;;;3.05;100.00;100997.38;5094521;28;20152;-74
2022/12/11 12:23:59;;;;;;;;;;;;;;;3.05;100.00;100994.78;5095010;28;19916;-76
2022/12/11 12:26:24;;;;;;;;;;;;;;;3.05;100.00;100993.06;5094558;28;19991;-76
2022/12/11 12:29:02;;;;;;;;;;;;;;;3.05;100.00;100989.63;5094679;28;19920;-76
2022/12/11 12:31:27;;;;;;;;;;;;;;;3.06;100.00;100988.75;5094734;28;20276;-76
2022/12/11 12:34:01;;;;;;;;;;;;;;;3.06;100.00;100994.78;5094572;28;19916;-76
2022/12/11 12:36:29;;;;;;;;;;;;;;;3.06;100.00;100989.59;5094658;28;19943;-76
2022/12/11 12:38:55;;;;;;;;;;;;;;;3.07;100.00;100987.88;5094771;28;19923;-76
2022/12/11 12:41:35;;;;;;;;;;;;;;;3.06;100.00;100981.84;5095909;28;19980;-76
2022/12/11 12:44:32;;;;;;;;;;;;;;;3.07;100.00;100993.03;5076001;28;19981;-76
2022/12/11 12:46:59;;;;;;;;;;;;;;;3.05;100.00;100987.88;5038915;28;20096;-76